sensor_id;sensor_type;location;lat;lon;timestamp;P1;durP1;ratioP1;P2;durP2;ratioP2
9657;SDS011;4867;48.112;11.622;2022-10-17T00:00:40;6.03;;;3.83;;
9657;SDS011;4867;48.112;11.622;2022-10-17T00:03:08;4.23;;;3.80;;
9657;SDS011;4867;48.112;11.622;2022-10-17T00:05:40;6.07;;;3.50;;
9657;SDS011;4867;48.112;11.622;2022-10-17T00:08:09;5.00;;;3.33;;
9657;SDS011;4867;48.112;11.622;2022-10-17T00:10:38;5.20;;;3.40;;
9657;SDS011;4867;48.112;11.622;2022-10-17T00:13:05;6.87;;;3.50;;
9657;SDS011;4867;48.112;11.622;2022-10-17T00:15:33;3.73;;;3.33;;
9657;SDS011;4867;48.112;11.622;2022-10-17T00:18:00;4.00;;;3.57;;
9657;SDS011;4867;48.112;11.622;2022-10-17T00:20:28;5.67;;;4.10;;
9657;SDS011;4867;48.112;11.622;2022-10-17T00:22:56;8.07;;;3.77;;
9657;SDS011;4867;48.112;11.622;2022-10-17T00:25:23;5.57;;;3.60;;
9657;SDS011;4867;48.112;11.622;2022-10-17T00:27:50;4.30;;;3.53;;
9657;SDS011;4867;48.112;11.622;2022-10-17T00:30:18;5.63;;;3.67;;
9657;SDS011;4867;48.112;11.622;2022-10-17T00:32:45;3.97;;;3.63;;
9657;SDS011;4867;48.112;11.622;2022-10-17T00:35:12;7.97;;;4.00;;
9657;SDS011;4867;48.112;11.622;2022-10-17T00:37:40;4.50;;;3.37;;
9657;SDS011;4867;48.112;11.622;2022-10-17T00:40:08;4.07;;;3.10;;
9657;SDS011;4867;48.112;11.622;2022-10-17T00:42:36;5.87;;;3.43;;
9657;SDS011;4867;48.112;11.622;2022-10-17T00:47:34;7.30;;;3.80;;
9657;SDS011;4867;48.112;11.622;2022-10-17T00:50:03;6.63;;;3.60;;
9657;SDS011;4867;48.112;11.622;2022-10-17T00:52:32;5.40;;;3.40;;
9657;SDS011;4867;48.112;11.622;2022-10-17T00:55:44;6.33;;;3.07;;
9657;SDS011;4867;48.112;11.622;2022-10-17T00:57:55;4.37;;;3.07;;
9657;SDS011;4867;48.112;11.622;2022-10-17T01:00:25;3.87;;;2.90;;
9657;SDS011;4867;48.112;11.622;2022-10-17T01:02:53;4.67;;;3.20;;
9657;SDS011;4867;48.112;11.622;2022-10-17T01:05:20;4.80;;;3.70;;
9657;SDS011;4867;48.112;11.622;2022-10-17T01:07:48;6.87;;;3.30;;
9657;SDS011;4867;48.112;11.622;2022-10-17T01:10:17;6.30;;;3.43;;
9657;SDS011;4867;48.112;11.622;2022-10-17T01:18:20;4.83;;;3.33;;
9657;SDS011;4867;48.112;11.622;2022-10-17T01:23:36;6.97;;;3.33;;
9657;SDS011;4867;48.112;11.622;2022-10-17T01:32:23;5.97;;;3.30;;
9657;SDS011;4867;48.112;11.622;2022-10-17T01:37:47;3.93;;;3.20;;
9657;SDS011;4867;48.112;11.622;2022-10-17T01:40:27;7.43;;;3.07;;
9657;SDS011;4867;48.112;11.622;2022-10-17T01:43:06;5.80;;;3.50;;
9657;SDS011;4867;48.112;11.622;2022-10-17T01:48:18;5.83;;;3.03;;
9657;SDS011;4867;48.112;11.622;2022-10-17T01:50:59;5.83;;;3.80;;
9657;SDS011;4867;48.112;11.622;2022-10-17T01:54:15;6.37;;;3.60;;
9657;SDS011;4867;48.112;11.622;2022-10-17T01:56:28;5.67;;;3.53;;
9657;SDS011;4867;48.112;11.622;2022-10-17T01:59:02;6.37;;;3.27;;
9657;SDS011;4867;48.112;11.622;2022-10-17T02:01:35;3.70;;;3.40;;
9657;SDS011;4867;48.112;11.622;2022-10-17T02:04:05;4.90;;;3.60;;
9657;SDS011;4867;48.112;11.622;2022-10-17T02:06:35;4.57;;;3.27;;
9657;SDS011;4867;48.112;11.622;2022-10-17T02:09:19;7.17;;;3.40;;
9657;SDS011;4867;48.112;11.622;2022-10-17T02:20:03;7.13;;;3.30;;
9657;SDS011;4867;48.112;11.622;2022-10-17T02:22:56;6.17;;;3.20;;
9657;SDS011;4867;48.112;11.622;2022-10-17T02:25:38;4.60;;;3.70;;
9657;SDS011;4867;48.112;11.622;2022-10-17T02:30:56;4.63;;;3.27;;
9657;SDS011;4867;48.112;11.622;2022-10-17T02:36:05;3.77;;;3.30;;
9657;SDS011;4867;48.112;11.622;2022-10-17T02:38:36;4.50;;;3.40;;
9657;SDS011;4867;48.112;11.622;2022-10-17T02:41:06;3.73;;;3.20;;
9657;SDS011;4867;48.112;11.622;2022-10-17T02:43:36;6.67;;;3.07;;
9657;SDS011;4867;48.112;11.622;2022-10-17T02:46:04;5.83;;;3.37;;
9657;SDS011;4867;48.112;11.622;2022-10-17T02:48:35;5.07;;;3.20;;
9657;SDS011;4867;48.112;11.622;2022-10-17T02:51:42;4.50;;;3.30;;
9657;SDS011;4867;48.112;11.622;2022-10-17T02:54:22;4.83;;;2.90;;
9657;SDS011;4867;48.112;11.622;2022-10-17T02:57:08;9.17;;;3.20;;
9657;SDS011;4867;48.112;11.622;2022-10-17T02:59:42;3.80;;;2.97;;
9657;SDS011;4867;48.112;11.622;2022-10-17T03:02:11;4.70;;;2.80;;
9657;SDS011;4867;48.112;11.622;2022-10-17T03:04:41;6.93;;;3.00;;
9657;SDS011;4867;48.112;11.622;2022-10-17T03:07:09;5.13;;;2.87;;
9657;SDS011;4867;48.112;11.622;2022-10-17T03:09:37;3.83;;;2.40;;
9657;SDS011;4867;48.112;11.622;2022-10-17T03:12:04;2.67;;;2.47;;
9657;SDS011;4867;48.112;11.622;2022-10-17T03:14:33;5.77;;;2.70;;
9657;SDS011;4867;48.112;11.622;2022-10-17T03:17:02;4.20;;;3.30;;
9657;SDS011;4867;48.112;11.622;2022-10-17T03:19:29;7.17;;;2.80;;
9657;SDS011;4867;48.112;11.622;2022-10-17T03:21:57;4.43;;;2.83;;
9657;SDS011;4867;48.112;11.622;2022-10-17T03:24:24;5.47;;;2.80;;
9657;SDS011;4867;48.112;11.622;2022-10-17T03:26:52;5.97;;;3.30;;
9657;SDS011;4867;48.112;11.622;2022-10-17T03:29:19;4.10;;;2.87;;
9657;SDS011;4867;48.112;11.622;2022-10-17T03:31:46;3.33;;;2.90;;
9657;SDS011;4867;48.112;11.622;2022-10-17T03:34:14;7.73;;;3.10;;
9657;SDS011;4867;48.112;11.622;2022-10-17T03:36:44;4.03;;;2.80;;
9657;SDS011;4867;48.112;11.622;2022-10-17T03:39:12;4.07;;;2.90;;
9657;SDS011;4867;48.112;11.622;2022-10-17T03:41:39;5.40;;;2.90;;
9657;SDS011;4867;48.112;11.622;2022-10-17T03:44:08;5.53;;;2.90;;
9657;SDS011;4867;48.112;11.622;2022-10-17T03:46:35;5.63;;;3.27;;
9657;SDS011;4867;48.112;11.622;2022-10-17T03:49:03;5.17;;;3.20;;
9657;SDS011;4867;48.112;11.622;2022-10-17T03:51:32;3.87;;;3.07;;
9657;SDS011;4867;48.112;11.622;2022-10-17T03:54:05;3.40;;;3.10;;
9657;SDS011;4867;48.112;11.622;2022-10-17T03:56:32;4.17;;;3.07;;
9657;SDS011;4867;48.112;11.622;2022-10-17T03:59:06;5.43;;;3.07;;
9657;SDS011;4867;48.112;11.622;2022-10-17T04:01:36;5.57;;;2.90;;
9657;SDS011;4867;48.112;11.622;2022-10-17T04:04:04;3.97;;;2.93;;
9657;SDS011;4867;48.112;11.622;2022-10-17T04:06:33;4.70;;;3.00;;
9657;SDS011;4867;48.112;11.622;2022-10-17T04:09:02;3.23;;;2.70;;
9657;SDS011;4867;48.112;11.622;2022-10-17T04:11:52;4.13;;;2.70;;
9657;SDS011;4867;48.112;11.622;2022-10-17T04:14:21;4.80;;;2.80;;
9657;SDS011;4867;48.112;11.622;2022-10-17T04:16:50;2.80;;;2.50;;
9657;SDS011;4867;48.112;11.622;2022-10-17T04:19:20;4.20;;;3.50;;
9657;SDS011;4867;48.112;11.622;2022-10-17T04:21:48;3.57;;;2.60;;
9657;SDS011;4867;48.112;11.622;2022-10-17T04:24:16;5.23;;;2.80;;
9657;SDS011;4867;48.112;11.622;2022-10-17T04:26:59;5.83;;;2.73;;
9657;SDS011;4867;48.112;11.622;2022-10-17T04:29:29;4.60;;;2.73;;
9657;SDS011;4867;48.112;11.622;2022-10-17T04:32:06;3.53;;;2.80;;
9657;SDS011;4867;48.112;11.622;2022-10-17T04:34:47;3.70;;;3.00;;
9657;SDS011;4867;48.112;11.622;2022-10-17T04:37:17;4.63;;;3.00;;
9657;SDS011;4867;48.112;11.622;2022-10-17T04:39:45;3.27;;;2.97;;
9657;SDS011;4867;48.112;11.622;2022-10-17T04:42:12;4.87;;;2.77;;
9657;SDS011;4867;48.112;11.622;2022-10-17T04:44:40;3.27;;;2.97;;
9657;SDS011;4867;48.112;11.622;2022-10-17T04:47:08;3.47;;;2.80;;
9657;SDS011;4867;48.112;11.622;2022-10-17T04:49:37;4.30;;;2.90;;
9657;SDS011;4867;48.112;11.622;2022-10-17T04:52:08;7.00;;;3.23;;
9657;SDS011;4867;48.112;11.622;2022-10-17T04:54:43;4.20;;;3.20;;
9657;SDS011;4867;48.112;11.622;2022-10-17T04:57:12;5.07;;;3.20;;
9657;SDS011;4867;48.112;11.622;2022-10-17T04:59:43;7.57;;;3.57;;
9657;SDS011;4867;48.112;11.622;2022-10-17T05:02:17;5.70;;;3.90;;
9657;SDS011;4867;48.112;11.622;2022-10-17T05:04:45;5.10;;;3.70;;
9657;SDS011;4867;48.112;11.622;2022-10-17T05:07:13;6.63;;;3.83;;
9657;SDS011;4867;48.112;11.622;2022-10-17T05:10:02;4.13;;;3.60;;
9657;SDS011;4867;48.112;11.622;2022-10-17T05:12:30;4.93;;;3.80;;
9657;SDS011;4867;48.112;11.622;2022-10-17T05:14:58;6.17;;;3.93;;
9657;SDS011;4867;48.112;11.622;2022-10-17T05:17:27;5.17;;;3.53;;
9657;SDS011;4867;48.112;11.622;2022-10-17T05:19:54;7.43;;;3.80;;
9657;SDS011;4867;48.112;11.622;2022-10-17T05:22:21;4.23;;;3.03;;
9657;SDS011;4867;48.112;11.622;2022-10-17T05:24:49;4.43;;;3.90;;
9657;SDS011;4867;48.112;11.622;2022-10-17T05:27:17;7.07;;;3.60;;
9657;SDS011;4867;48.112;11.622;2022-10-17T05:29:45;4.80;;;3.57;;
9657;SDS011;4867;48.112;11.622;2022-10-17T05:32:19;7.53;;;3.83;;
9657;SDS011;4867;48.112;11.622;2022-10-17T05:34:47;4.90;;;3.70;;
9657;SDS011;4867;48.112;11.622;2022-10-17T05:37:14;5.13;;;3.53;;
9657;SDS011;4867;48.112;11.622;2022-10-17T05:39:46;4.63;;;3.70;;
9657;SDS011;4867;48.112;11.622;2022-10-17T05:42:17;6.03;;;3.70;;
9657;SDS011;4867;48.112;11.622;2022-10-17T05:44:46;3.73;;;3.33;;
9657;SDS011;4867;48.112;11.622;2022-10-17T05:47:15;4.40;;;3.60;;
9657;SDS011;4867;48.112;11.622;2022-10-17T05:49:43;3.83;;;3.20;;
9657;SDS011;4867;48.112;11.622;2022-10-17T05:52:21;4.67;;;4.00;;
9657;SDS011;4867;48.112;11.622;2022-10-17T05:55:11;4.73;;;3.87;;
9657;SDS011;4867;48.112;11.622;2022-10-17T05:57:39;6.83;;;3.93;;
9657;SDS011;4867;48.112;11.622;2022-10-17T06:00:11;4.93;;;3.77;;
9657;SDS011;4867;48.112;11.622;2022-10-17T06:02:49;6.40;;;3.67;;
9657;SDS011;4867;48.112;11.622;2022-10-17T06:05:18;4.50;;;3.67;;
9657;SDS011;4867;48.112;11.622;2022-10-17T06:07:46;5.23;;;3.73;;
9657;SDS011;4867;48.112;11.622;2022-10-17T06:10:15;5.20;;;4.13;;
9657;SDS011;4867;48.112;11.622;2022-10-17T06:12:44;7.83;;;3.97;;
9657;SDS011;4867;48.112;11.622;2022-10-17T06:15:11;5.07;;;4.37;;
9657;SDS011;4867;48.112;11.622;2022-10-17T06:17:41;4.60;;;3.93;;
9657;SDS011;4867;48.112;11.622;2022-10-17T06:20:09;4.13;;;3.73;;
9657;SDS011;4867;48.112;11.622;2022-10-17T06:22:36;5.37;;;4.07;;
9657;SDS011;4867;48.112;11.622;2022-10-17T06:25:09;6.37;;;3.93;;
9657;SDS011;4867;48.112;11.622;2022-10-17T06:27:37;5.83;;;4.57;;
9657;SDS011;4867;48.112;11.622;2022-10-17T06:30:04;7.30;;;4.40;;
9657;SDS011;4867;48.112;11.622;2022-10-17T06:32:32;7.33;;;4.27;;
9657;SDS011;4867;48.112;11.622;2022-10-17T06:34:59;5.37;;;3.70;;
9657;SDS011;4867;48.112;11.622;2022-10-17T06:37:31;5.37;;;3.80;;
9657;SDS011;4867;48.112;11.622;2022-10-17T06:40:05;6.40;;;4.13;;
9657;SDS011;4867;48.112;11.622;2022-10-17T06:42:35;5.33;;;4.37;;
9657;SDS011;4867;48.112;11.622;2022-10-17T06:45:24;6.53;;;4.10;;
9657;SDS011;4867;48.112;11.622;2022-10-17T06:48:00;7.67;;;4.40;;
9657;SDS011;4867;48.112;11.622;2022-10-17T06:50:42;5.50;;;4.23;;
9657;SDS011;4867;48.112;11.622;2022-10-17T06:53:16;10.50;;;4.70;;
9657;SDS011;4867;48.112;11.622;2022-10-17T06:55:50;7.03;;;3.93;;
9657;SDS011;4867;48.112;11.622;2022-10-17T06:58:34;10.57;;;4.47;;
9657;SDS011;4867;48.112;11.622;2022-10-17T07:01:10;4.60;;;3.80;;
9657;SDS011;4867;48.112;11.622;2022-10-17T07:03:39;5.87;;;4.37;;
9657;SDS011;4867;48.112;11.622;2022-10-17T07:06:07;7.87;;;4.40;;
9657;SDS011;4867;48.112;11.622;2022-10-17T07:08:42;5.43;;;4.33;;
9657;SDS011;4867;48.112;11.622;2022-10-17T07:11:14;6.13;;;4.07;;
9657;SDS011;4867;48.112;11.622;2022-10-17T07:13:43;9.73;;;4.53;;
9657;SDS011;4867;48.112;11.622;2022-10-17T07:16:11;5.17;;;4.20;;
9657;SDS011;4867;48.112;11.622;2022-10-17T07:18:40;11.40;;;4.80;;
9657;SDS011;4867;48.112;11.622;2022-10-17T07:21:08;8.73;;;4.60;;
9657;SDS011;4867;48.112;11.622;2022-10-17T07:23:38;6.97;;;4.40;;
9657;SDS011;4867;48.112;11.622;2022-10-17T07:26:10;7.43;;;4.13;;
9657;SDS011;4867;48.112;11.622;2022-10-17T07:28:40;5.33;;;4.23;;
9657;SDS011;4867;48.112;11.622;2022-10-17T07:31:22;8.27;;;5.53;;
9657;SDS011;4867;48.112;11.622;2022-10-17T07:33:50;6.47;;;5.10;;
9657;SDS011;4867;48.112;11.622;2022-10-17T07:36:19;8.83;;;5.20;;
9657;SDS011;4867;48.112;11.622;2022-10-17T07:38:46;9.50;;;5.80;;
9657;SDS011;4867;48.112;11.622;2022-10-17T07:41:13;11.03;;;5.37;;
9657;SDS011;4867;48.112;11.622;2022-10-17T07:43:47;6.57;;;5.20;;
9657;SDS011;4867;48.112;11.622;2022-10-17T07:46:18;10.37;;;5.60;;
9657;SDS011;4867;48.112;11.622;2022-10-17T07:48:46;6.77;;;4.17;;
9657;SDS011;4867;48.112;11.622;2022-10-17T07:51:13;8.43;;;4.60;;
9657;SDS011;4867;48.112;11.622;2022-10-17T07:53:41;7.73;;;4.80;;
9657;SDS011;4867;48.112;11.622;2022-10-17T07:56:14;8.70;;;4.47;;
9657;SDS011;4867;48.112;11.622;2022-10-17T07:58:42;5.77;;;4.57;;
9657;SDS011;4867;48.112;11.622;2022-10-17T08:01:09;9.43;;;4.13;;
9657;SDS011;4867;48.112;11.622;2022-10-17T08:03:45;10.27;;;4.57;;
9657;SDS011;4867;48.112;11.622;2022-10-17T08:06:14;4.77;;;4.10;;
9657;SDS011;4867;48.112;11.622;2022-10-17T08:08:42;4.03;;;3.63;;
9657;SDS011;4867;48.112;11.622;2022-10-17T08:11:12;4.43;;;4.03;;
9657;SDS011;4867;48.112;11.622;2022-10-17T08:13:40;4.97;;;4.03;;
9657;SDS011;4867;48.112;11.622;2022-10-17T08:16:08;6.20;;;3.93;;
9657;SDS011;4867;48.112;11.622;2022-10-17T08:18:38;4.70;;;3.87;;
9657;SDS011;4867;48.112;11.622;2022-10-17T08:21:06;6.47;;;5.20;;
9657;SDS011;4867;48.112;11.622;2022-10-17T08:23:34;8.97;;;4.00;;
9657;SDS011;4867;48.112;11.622;2022-10-17T08:26:03;6.00;;;4.13;;
9657;SDS011;4867;48.112;11.622;2022-10-17T08:28:34;6.73;;;4.43;;
9657;SDS011;4867;48.112;11.622;2022-10-17T08:31:03;7.87;;;4.90;;
9657;SDS011;4867;48.112;11.622;2022-10-17T08:33:30;10.97;;;7.30;;
9657;SDS011;4867;48.112;11.622;2022-10-17T08:35:59;12.17;;;6.27;;
9657;SDS011;4867;48.112;11.622;2022-10-17T08:38:27;6.43;;;4.00;;
9657;SDS011;4867;48.112;11.622;2022-10-17T08:41:02;4.87;;;3.60;;
9657;SDS011;4867;48.112;11.622;2022-10-17T08:46:32;12.23;;;6.07;;
9657;SDS011;4867;48.112;11.622;2022-10-17T08:49:03;7.77;;;4.97;;
9657;SDS011;4867;48.112;11.622;2022-10-17T08:51:39;4.90;;;4.13;;
9657;SDS011;4867;48.112;11.622;2022-10-17T08:54:21;4.70;;;4.20;;
9657;SDS011;4867;48.112;11.622;2022-10-17T08:56:56;9.23;;;5.87;;
9657;SDS011;4867;48.112;11.622;2022-10-17T08:59:27;4.30;;;3.90;;
9657;SDS011;4867;48.112;11.622;2022-10-17T09:10:59;5.53;;;4.03;;
9657;SDS011;4867;48.112;11.622;2022-10-17T09:13:36;5.80;;;3.87;;
9657;SDS011;4867;48.112;11.622;2022-10-17T09:19:00;5.23;;;4.73;;
9657;SDS011;4867;48.112;11.622;2022-10-17T09:21:41;5.40;;;4.17;;
9657;SDS011;4867;48.112;11.622;2022-10-17T09:24:36;8.80;;;5.03;;
9657;SDS011;4867;48.112;11.622;2022-10-17T09:33:08;7.07;;;4.00;;
9657;SDS011;4867;48.112;11.622;2022-10-17T09:36:16;6.17;;;3.53;;
9657;SDS011;4867;48.112;11.622;2022-10-17T09:38:54;8.17;;;4.07;;
9657;SDS011;4867;48.112;11.622;2022-10-17T09:41:38;11.17;;;4.33;;
9657;SDS011;4867;48.112;11.622;2022-10-17T09:44:18;4.30;;;3.90;;
9657;SDS011;4867;48.112;11.622;2022-10-17T09:47:04;9.30;;;4.23;;
9657;SDS011;4867;48.112;11.622;2022-10-17T09:49:54;4.47;;;4.07;;
9657;SDS011;4867;48.112;11.622;2022-10-17T09:52:28;5.10;;;3.60;;
9657;SDS011;4867;48.112;11.622;2022-10-17T09:55:02;5.73;;;3.60;;
9657;SDS011;4867;48.112;11.622;2022-10-17T09:57:53;3.80;;;3.43;;
9657;SDS011;4867;48.112;11.622;2022-10-17T10:00:38;3.93;;;3.30;;
9657;SDS011;4867;48.112;11.622;2022-10-17T10:03:08;4.13;;;3.73;;
9657;SDS011;4867;48.112;11.622;2022-10-17T10:05:42;9.53;;;4.03;;
9657;SDS011;4867;48.112;11.622;2022-10-17T10:11:18;3.97;;;3.40;;
9657;SDS011;4867;48.112;11.622;2022-10-17T10:13:49;3.43;;;3.10;;
9657;SDS011;4867;48.112;11.622;2022-10-17T10:16:30;3.50;;;3.03;;
9657;SDS011;4867;48.112;11.622;2022-10-17T10:18:59;5.20;;;2.93;;
9657;SDS011;4867;48.112;11.622;2022-10-17T10:21:30;3.17;;;2.83;;
9657;SDS011;4867;48.112;11.622;2022-10-17T10:26:38;5.83;;;3.10;;
9657;SDS011;4867;48.112;11.622;2022-10-17T10:29:29;4.53;;;3.17;;
9657;SDS011;4867;48.112;11.622;2022-10-17T10:32:11;5.07;;;3.30;;
9657;SDS011;4867;48.112;11.622;2022-10-17T10:34:47;6.07;;;3.10;;
9657;SDS011;4867;48.112;11.622;2022-10-17T10:39:49;4.47;;;3.40;;
9657;SDS011;4867;48.112;11.622;2022-10-17T10:42:25;4.83;;;3.20;;
9657;SDS011;4867;48.112;11.622;2022-10-17T10:44:56;4.27;;;3.30;;
9657;SDS011;4867;48.112;11.622;2022-10-17T10:47:30;4.50;;;4.10;;
9657;SDS011;4867;48.112;11.622;2022-10-17T10:50:06;5.50;;;4.67;;
9657;SDS011;4867;48.112;11.622;2022-10-17T10:55:24;5.53;;;3.60;;
9657;SDS011;4867;48.112;11.622;2022-10-17T10:58:00;4.63;;;3.20;;
9657;SDS011;4867;48.112;11.622;2022-10-17T11:00:46;5.97;;;3.27;;
9657;SDS011;4867;48.112;11.622;2022-10-17T11:05:46;3.40;;;2.80;;
9657;SDS011;4867;48.112;11.622;2022-10-17T11:08:37;4.13;;;3.73;;
9657;SDS011;4867;48.112;11.622;2022-10-17T11:14:07;3.70;;;3.40;;
9657;SDS011;4867;48.112;11.622;2022-10-17T11:16:55;3.03;;;2.73;;
9657;SDS011;4867;48.112;11.622;2022-10-17T11:20:18;3.43;;;3.00;;
9657;SDS011;4867;48.112;11.622;2022-10-17T11:22:42;4.87;;;4.10;;
9657;SDS011;4867;48.112;11.622;2022-10-17T11:28:02;5.33;;;3.43;;
9657;SDS011;4867;48.112;11.622;2022-10-17T11:30:40;3.53;;;3.17;;
9657;SDS011;4867;48.112;11.622;2022-10-17T11:36:13;5.13;;;2.80;;
9657;SDS011;4867;48.112;11.622;2022-10-17T11:38:53;3.70;;;3.00;;
9657;SDS011;4867;48.112;11.622;2022-10-17T11:41:41;4.00;;;3.30;;
9657;SDS011;4867;48.112;11.622;2022-10-17T11:44:36;2.83;;;2.60;;
9657;SDS011;4867;48.112;11.622;2022-10-17T11:47:13;5.17;;;2.73;;
9657;SDS011;4867;48.112;11.622;2022-10-17T11:49:51;4.30;;;2.60;;
9657;SDS011;4867;48.112;11.622;2022-10-17T11:52:37;2.83;;;2.50;;
9657;SDS011;4867;48.112;11.622;2022-10-17T11:55:29;2.83;;;2.50;;
9657;SDS011;4867;48.112;11.622;2022-10-17T11:58:04;4.20;;;2.70;;
9657;SDS011;4867;48.112;11.622;2022-10-17T12:03:35;3.77;;;2.80;;
9657;SDS011;4867;48.112;11.622;2022-10-17T12:06:11;7.33;;;3.30;;
9657;SDS011;4867;48.112;11.622;2022-10-17T12:08:57;3.07;;;2.70;;
9657;SDS011;4867;48.112;11.622;2022-10-17T12:11:41;4.07;;;2.77;;
9657;SDS011;4867;48.112;11.622;2022-10-17T12:17:01;4.03;;;2.60;;
9657;SDS011;4867;48.112;11.622;2022-10-17T12:19:31;6.20;;;2.70;;
9657;SDS011;4867;48.112;11.622;2022-10-17T12:27:40;5.53;;;3.43;;
9657;SDS011;4867;48.112;11.622;2022-10-17T12:30:17;3.33;;;2.60;;
9657;SDS011;4867;48.112;11.622;2022-10-17T12:35:48;5.27;;;2.40;;
9657;SDS011;4867;48.112;11.622;2022-10-17T12:45:55;6.53;;;3.40;;
9657;SDS011;4867;48.112;11.622;2022-10-17T12:52:22;6.80;;;3.90;;
9657;SDS011;4867;48.112;11.622;2022-10-17T12:54:56;4.97;;;3.90;;
9657;SDS011;4867;48.112;11.622;2022-10-17T12:57:49;9.95;;;4.25;;
9657;SDS011;4867;48.112;11.622;2022-10-17T13:00:26;5.85;;;3.50;;
9657;SDS011;4867;48.112;11.622;2022-10-17T13:03:17;2.92;;;2.72;;
9657;SDS011;4867;48.112;11.622;2022-10-17T13:06:11;6.70;;;4.75;;
9657;SDS011;4867;48.112;11.622;2022-10-17T13:08:37;5.88;;;3.10;;
9657;SDS011;4867;48.112;11.622;2022-10-17T13:11:09;4.25;;;3.92;;
9657;SDS011;4867;48.112;11.622;2022-10-17T13:13:45;4.13;;;2.50;;
9657;SDS011;4867;48.112;11.622;2022-10-17T13:19:04;2.60;;;2.20;;
9657;SDS011;4867;48.112;11.622;2022-10-17T13:21:51;2.80;;;2.50;;
9657;SDS011;4867;48.112;11.622;2022-10-17T13:24:31;4.35;;;2.90;;
9657;SDS011;4867;48.112;11.622;2022-10-17T13:27:00;2.78;;;2.40;;
9657;SDS011;4867;48.112;11.622;2022-10-17T13:29:29;4.38;;;2.80;;
9657;SDS011;4867;48.112;11.622;2022-10-17T13:31:59;2.95;;;2.38;;
9657;SDS011;4867;48.112;11.622;2022-10-17T13:34:31;3.17;;;2.28;;
9657;SDS011;4867;48.112;11.622;2022-10-17T13:37:00;2.60;;;2.38;;
9657;SDS011;4867;48.112;11.622;2022-10-17T13:39:33;5.07;;;3.05;;
9657;SDS011;4867;48.112;11.622;2022-10-17T13:44:50;2.38;;;2.17;;
9657;SDS011;4867;48.112;11.622;2022-10-17T13:47:21;2.60;;;2.40;;
9657;SDS011;4867;48.112;11.622;2022-10-17T13:49:51;5.70;;;3.33;;
9657;SDS011;4867;48.112;11.622;2022-10-17T13:52:22;3.78;;;2.53;;
9657;SDS011;4867;48.112;11.622;2022-10-17T13:54:53;2.63;;;2.42;;
9657;SDS011;4867;48.112;11.622;2022-10-17T13:57:29;3.13;;;2.35;;
9657;SDS011;4867;48.112;11.622;2022-10-17T13:59:58;3.35;;;2.60;;
9657;SDS011;4867;48.112;11.622;2022-10-17T14:02:39;2.72;;;2.53;;
9657;SDS011;4867;48.112;11.622;2022-10-17T14:07:45;2.60;;;2.40;;
9657;SDS011;4867;48.112;11.622;2022-10-17T14:10:33;2.75;;;2.55;;
9657;SDS011;4867;48.112;11.622;2022-10-17T14:13:03;2.70;;;2.50;;
9657;SDS011;4867;48.112;11.622;2022-10-17T14:15:34;2.50;;;2.33;;
9657;SDS011;4867;48.112;11.622;2022-10-17T14:18:06;4.25;;;2.80;;
9657;SDS011;4867;48.112;11.622;2022-10-17T14:20:35;3.67;;;2.63;;
9657;SDS011;4867;48.112;11.622;2022-10-17T14:23:39;3.05;;;2.60;;
9657;SDS011;4867;48.112;11.622;2022-10-17T14:26:20;3.47;;;2.33;;
9657;SDS011;4867;48.112;11.622;2022-10-17T14:28:50;2.85;;;2.58;;
9657;SDS011;4867;48.112;11.622;2022-10-17T14:31:34;2.85;;;2.60;;
9657;SDS011;4867;48.112;11.622;2022-10-17T14:34:03;3.33;;;3.03;;
9657;SDS011;4867;48.112;11.622;2022-10-17T14:36:37;5.50;;;2.78;;
9657;SDS011;4867;48.112;11.622;2022-10-17T14:39:21;2.65;;;2.35;;
9657;SDS011;4867;48.112;11.622;2022-10-17T14:41:51;6.13;;;2.53;;
9657;SDS011;4867;48.112;11.622;2022-10-17T14:44:20;3.00;;;2.72;;
9657;SDS011;4867;48.112;11.622;2022-10-17T14:46:52;3.75;;;2.70;;
9657;SDS011;4867;48.112;11.622;2022-10-17T14:49:25;5.72;;;2.50;;
9657;SDS011;4867;48.112;11.622;2022-10-17T14:54:45;2.67;;;2.30;;
9657;SDS011;4867;48.112;11.622;2022-10-17T14:57:16;4.07;;;2.40;;
9657;SDS011;4867;48.112;11.622;2022-10-17T14:59:47;3.33;;;2.65;;
9657;SDS011;4867;48.112;11.622;2022-10-17T15:02:22;4.45;;;2.35;;
9657;SDS011;4867;48.112;11.622;2022-10-17T15:04:51;4.28;;;2.55;;
9657;SDS011;4867;48.112;11.622;2022-10-17T15:07:19;4.10;;;2.50;;
9657;SDS011;4867;48.112;11.622;2022-10-17T15:09:48;3.03;;;2.67;;
9657;SDS011;4867;48.112;11.622;2022-10-17T15:12:17;3.47;;;2.75;;
9657;SDS011;4867;48.112;11.622;2022-10-17T15:14:47;5.50;;;2.80;;
9657;SDS011;4867;48.112;11.622;2022-10-17T15:17:18;3.90;;;2.60;;
9657;SDS011;4867;48.112;11.622;2022-10-17T15:19:51;3.00;;;2.70;;
9657;SDS011;4867;48.112;11.622;2022-10-17T15:22:19;2.78;;;2.38;;
9657;SDS011;4867;48.112;11.622;2022-10-17T15:24:46;5.63;;;2.78;;
9657;SDS011;4867;48.112;11.622;2022-10-17T15:29:42;2.60;;;2.40;;
9657;SDS011;4867;48.112;11.622;2022-10-17T15:32:10;4.72;;;2.80;;
9657;SDS011;4867;48.112;11.622;2022-10-17T15:34:38;4.43;;;2.63;;
9657;SDS011;4867;48.112;11.622;2022-10-17T15:37:06;4.00;;;2.77;;
9657;SDS011;4867;48.112;11.622;2022-10-17T15:39:48;3.30;;;3.00;;
9657;SDS011;4867;48.112;11.622;2022-10-17T15:42:20;7.13;;;3.20;;
9657;SDS011;4867;48.112;11.622;2022-10-17T15:44:48;5.68;;;3.30;;
9657;SDS011;4867;48.112;11.622;2022-10-17T15:47:34;4.97;;;2.90;;
9657;SDS011;4867;48.112;11.622;2022-10-17T15:50:01;3.30;;;3.00;;
9657;SDS011;4867;48.112;11.622;2022-10-17T15:52:30;4.33;;;3.70;;
9657;SDS011;4867;48.112;11.622;2022-10-17T15:54:58;5.10;;;3.10;;
9657;SDS011;4867;48.112;11.622;2022-10-17T15:57:32;5.77;;;3.20;;
9657;SDS011;4867;48.112;11.622;2022-10-17T16:00:04;4.00;;;3.00;;
9657;SDS011;4867;48.112;11.622;2022-10-17T16:02:35;3.93;;;3.30;;
9657;SDS011;4867;48.112;11.622;2022-10-17T16:05:04;4.93;;;2.83;;
9657;SDS011;4867;48.112;11.622;2022-10-17T16:07:43;4.67;;;4.27;;
9657;SDS011;4867;48.112;11.622;2022-10-17T16:10:14;7.33;;;3.83;;
9657;SDS011;4867;48.112;11.622;2022-10-17T16:12:42;3.57;;;3.23;;
9657;SDS011;4867;48.112;11.622;2022-10-17T16:15:20;7.03;;;3.30;;
9657;SDS011;4867;48.112;11.622;2022-10-17T16:17:50;4.80;;;3.30;;
9657;SDS011;4867;48.112;11.622;2022-10-17T16:20:18;4.80;;;3.30;;
9657;SDS011;4867;48.112;11.622;2022-10-17T16:22:46;8.53;;;4.50;;
9657;SDS011;4867;48.112;11.622;2022-10-17T16:25:22;10.87;;;5.13;;
9657;SDS011;4867;48.112;11.622;2022-10-17T16:27:52;7.63;;;4.67;;
9657;SDS011;4867;48.112;11.622;2022-10-17T16:30:22;5.10;;;3.73;;
9657;SDS011;4867;48.112;11.622;2022-10-17T16:32:51;6.93;;;4.40;;
9657;SDS011;4867;48.112;11.622;2022-10-17T16:35:20;6.50;;;4.50;;
9657;SDS011;4867;48.112;11.622;2022-10-17T16:37:49;7.63;;;4.33;;
9657;SDS011;4867;48.112;11.622;2022-10-17T16:40:17;12.27;;;4.30;;
9657;SDS011;4867;48.112;11.622;2022-10-17T16:42:44;13.90;;;5.07;;
9657;SDS011;4867;48.112;11.622;2022-10-17T16:45:15;12.33;;;4.30;;
9657;SDS011;4867;48.112;11.622;2022-10-17T16:47:44;7.07;;;4.10;;
9657;SDS011;4867;48.112;11.622;2022-10-17T16:50:12;6.87;;;4.30;;
9657;SDS011;4867;48.112;11.622;2022-10-17T16:52:40;7.47;;;4.80;;
9657;SDS011;4867;48.112;11.622;2022-10-17T16:55:08;5.73;;;4.40;;
9657;SDS011;4867;48.112;11.622;2022-10-17T16:57:35;7.17;;;4.87;;
9657;SDS011;4867;48.112;11.622;2022-10-17T17:00:03;5.03;;;4.17;;
9657;SDS011;4867;48.112;11.622;2022-10-17T17:02:32;7.63;;;5.57;;
9657;SDS011;4867;48.112;11.622;2022-10-17T17:05:00;10.27;;;5.23;;
9657;SDS011;4867;48.112;11.622;2022-10-17T17:07:27;8.27;;;4.03;;
9657;SDS011;4867;48.112;11.622;2022-10-17T17:09:55;7.10;;;4.67;;
9657;SDS011;4867;48.112;11.622;2022-10-17T17:12:23;7.60;;;4.73;;
9657;SDS011;4867;48.112;11.622;2022-10-17T17:14:50;9.00;;;4.80;;
9657;SDS011;4867;48.112;11.622;2022-10-17T17:17:17;7.37;;;5.37;;
9657;SDS011;4867;48.112;11.622;2022-10-17T17:20:05;9.10;;;5.20;;
9657;SDS011;4867;48.112;11.622;2022-10-17T17:22:32;10.80;;;7.13;;
9657;SDS011;4867;48.112;11.622;2022-10-17T17:24:59;5.93;;;5.07;;
9657;SDS011;4867;48.112;11.622;2022-10-17T17:27:27;5.33;;;4.77;;
9657;SDS011;4867;48.112;11.622;2022-10-17T17:29:55;9.57;;;5.83;;
9657;SDS011;4867;48.112;11.622;2022-10-17T17:32:22;16.97;;;15.17;;